sensor_id;sensor_type;location;lat;lon;timestamp;pressure;altitude;pressure_sealevel;temperature;humidity
13604;BME280;24578;48.264;11.436;2023-04-10T00:02:23;96865.41;;;0.60;100.00
13604;BME280;24578;48.264;11.436;2023-04-10T00:05:45;96868.03;;;0.55;100.00
13604;BME280;24578;48.264;11.436;2023-04-10T00:09:08;96866.47;;;0.50;100.00
13604;BME280;24578;48.264;11.436;2023-04-10T00:12:30;96855.50;;;0.46;100.00
13604;BME280;24578;48.264;11.436;2023-04-10T00:15:52;96860.72;;;0.41;100.00
13604;BME280;24578;48.264;11.436;2023-04-10T00:19:14;96859.91;;;0.39;100.00
13604;BME280;24578;48.264;11.436;2023-04-10T00:22:35;96853.19;;;0.35;100.00
13604;BME280;24578;48.264;11.436;2023-04-10T00:25:57;96853.25;;;0.32;100.00
13604;BME280;24578;48.264;11.436;2023-04-10T00:29:19;96840.69;;;0.24;100.00
13604;BME280;24578;48.264;11.436;2023-04-10T00:32:41;96841.59;;;0.22;100.00
13604;BME280;24578;48.264;11.436;2023-04-10T00:36:04;96834.94;;;0.16;100.00
13604;BME280;24578;48.264;11.436;2023-04-10T00:39:26;96830.75;;;0.13;100.00
13604;BME280;24578;48.264;11.436;2023-04-10T00:42:47;96823.91;;;0.16;100.00
13604;BME280;24578;48.264;11.436;2023-04-10T00:46:10;96828.16;;;0.15;100.00
13604;BME280;24578;48.264;11.436;2023-04-10T00:49:33;96818.81;;;0.16;100.00
13604;BME280;24578;48.264;11.436;2023-04-10T00:52:55;96827.41;;;0.11;100.00
13604;BME280;24578;48.264;11.436;2023-04-10T00:56:18;96821.53;;;0.08;100.00
13604;BME280;24578;48.264;11.436;2023-04-10T00:59:40;96832.59;;;0.07;100.00
13604;BME280;24578;48.264;11.436;2023-04-10T01:03:02;96824.25;;;-0.02;100.00
13604;BME280;24578;48.264;11.436;2023-04-10T01:10:35;96831.28;;;-0.14;100.00
13604;BME280;24578;48.264;11.436;2023-04-10T01:14:29;96826.34;;;-0.21;100.00
13604;BME280;24578;48.264;11.436;2023-04-10T01:18:17;96835.75;;;-0.24;100.00
13604;BME280;24578;48.264;11.436;2023-04-10T01:21:41;96824.78;;;-0.28;100.00
13604;BME280;24578;48.264;11.436;2023-04-10T01:32:08;96816.63;;;-0.44;100.00
13604;BME280;24578;48.264;11.436;2023-04-10T01:35:32;96809.91;;;-0.48;100.00
13604;BME280;24578;48.264;11.436;2023-04-10T01:38:57;96799.66;;;-0.45;100.00
13604;BME280;24578;48.264;11.436;2023-04-10T01:42:21;96807.25;;;-0.43;100.00
13604;BME280;24578;48.264;11.436;2023-04-10T01:45:45;96802.22;;;-0.45;100.00
13604;BME280;24578;48.264;11.436;2023-04-10T01:49:09;96792.94;;;-0.48;100.00
13604;BME280;24578;48.264;11.436;2023-04-10T01:52:33;96789.59;;;-0.51;100.00
13604;BME280;24578;48.264;11.436;2023-04-10T01:55:56;96793.00;;;-0.52;100.00
13604;BME280;24578;48.264;11.436;2023-04-10T01:59:19;96796.41;;;-0.52;100.00
13604;BME280;24578;48.264;11.436;2023-04-10T02:02:41;96800.69;;;-0.54;100.00
13604;BME280;24578;48.264;11.436;2023-04-10T02:06:16;96795.63;;;-0.55;100.00
13604;BME280;24578;48.264;11.436;2023-04-10T02:09:53;96791.38;;;-0.55;100.00
13604;BME280;24578;48.264;11.436;2023-04-10T02:13:20;96800.69;;;-0.54;100.00
13604;BME280;24578;48.264;11.436;2023-04-10T02:16:43;96799.91;;;-0.57;100.00
13604;BME280;24578;48.264;11.436;2023-04-10T02:20:07;96793.97;;;-0.56;100.00
13604;BME280;24578;48.264;11.436;2023-04-10T02:23:31;96800.78;;;-0.58;100.00
13604;BME280;24578;48.264;11.436;2023-04-10T02:26:52;96792.34;;;-0.60;100.00
13604;BME280;24578;48.264;11.436;2023-04-10T02:30:14;96801.66;;;-0.61;100.00
13604;BME280;24578;48.264;11.436;2023-04-10T02:33:37;96793.19;;;-0.62;100.00
13604;BME280;24578;48.264;11.436;2023-04-10T02:36:58;96801.66;;;-0.61;100.00
13604;BME280;24578;48.264;11.436;2023-04-10T02:40:21;96796.56;;;-0.59;100.00
13604;BME280;24578;48.264;11.436;2023-04-10T02:43:43;96800.06;;;-0.67;100.00
13604;BME280;24578;48.264;11.436;2023-04-10T02:47:05;96796.72;;;-0.69;100.00
13604;BME280;24578;48.264;11.436;2023-04-10T02:50:27;96801.75;;;-0.66;100.00
13604;BME280;24578;48.264;11.436;2023-04-10T02:53:50;96794.19;;;-0.70;100.00
13604;BME280;24578;48.264;11.436;2023-04-10T02:57:13;96794.19;;;-0.70;100.00
13604;BME280;24578;48.264;11.436;2023-04-10T03:00:35;96789.22;;;-0.75;100.00
13604;BME280;24578;48.264;11.436;2023-04-10T03:03:57;96789.22;;;-0.77;100.00
13604;BME280;24578;48.264;11.436;2023-04-10T03:07:18;96789.25;;;-0.78;100.00
13604;BME280;24578;48.264;11.436;2023-04-10T03:10:43;96792.66;;;-0.79;100.00
13604;BME280;24578;48.264;11.436;2023-04-10T03:14:06;96795.25;;;-0.81;100.00
13604;BME280;24578;48.264;11.436;2023-04-10T03:17:30;96797.00;;;-0.84;100.00
13604;BME280;24578;48.264;11.436;2023-04-10T03:20:51;96781.00;;;-0.89;100.00
13604;BME280;24578;48.264;11.436;2023-04-10T03:24:13;96787.78;;;-0.90;100.00
13604;BME280;24578;48.264;11.436;2023-04-10T03:27:35;96798.78;;;-0.89;100.00
13604;BME280;24578;48.264;11.436;2023-04-10T03:30:57;96789.50;;;-0.90;100.00
13604;BME280;24578;48.264;11.436;2023-04-10T03:34:18;96803.06;;;-0.92;100.00
13604;BME280;24578;48.264;11.436;2023-04-10T03:37:40;96803.97;;;-0.94;100.00
13604;BME280;24578;48.264;11.436;2023-04-10T03:41:02;96794.66;;;-0.97;100.00
13604;BME280;24578;48.264;11.436;2023-04-10T03:44:24;96795.53;;;-0.98;100.00
13604;BME280;24578;48.264;11.436;2023-04-10T03:47:46;96789.59;;;-0.97;100.00
13604;BME280;24578;48.264;11.436;2023-04-10T03:51:08;96796.34;;;-0.96;100.00
13604;BME280;24578;48.264;11.436;2023-04-10T03:54:30;96802.28;;;-0.97;100.00
13604;BME280;24578;48.264;11.436;2023-04-10T03:57:52;96798.13;;;-1.01;100.00
13604;BME280;24578;48.264;11.436;2023-04-10T04:01:13;96787.94;;;-1.01;100.00
13604;BME280;24578;48.264;11.436;2023-04-10T04:04:36;96798.19;;;-1.04;100.00
13604;BME280;24578;48.264;11.436;2023-04-10T04:07:57;96795.66;;;-1.04;100.00
13604;BME280;24578;48.264;11.436;2023-04-10T04:11:19;96790.63;;;-1.07;100.00
13604;BME280;24578;48.264;11.436;2023-04-10T04:14:41;96796.59;;;-1.10;100.00
13604;BME280;24578;48.264;11.436;2023-04-10T04:18:04;96791.53;;;-1.10;100.00
13604;BME280;24578;48.264;11.436;2023-04-10T04:21:26;96793.13;;;-1.04;100.00
13604;BME280;24578;48.264;11.436;2023-04-10T04:24:48;96804.88;;;-1.00;100.00
13604;BME280;24578;48.264;11.436;2023-04-10T04:28:10;96808.31;;;-1.02;100.00
13604;BME280;24578;48.264;11.436;2023-04-10T04:31:34;96800.72;;;-1.04;100.00
13604;BME280;24578;48.264;11.436;2023-04-10T04:34:55;96807.50;;;-1.04;100.00
13604;BME280;24578;48.264;11.436;2023-04-10T04:38:17;96816.81;;;-1.02;100.00
13604;BME280;24578;48.264;11.436;2023-04-10T04:41:40;96813.31;;;-0.98;100.00
13604;BME280;24578;48.264;11.436;2023-04-10T04:45:02;96819.22;;;-0.96;100.00
13604;BME280;24578;48.264;11.436;2023-04-10T04:48:24;96814.91;;;-0.90;100.00
13604;BME280;24578;48.264;11.436;2023-04-10T04:51:45;96829.22;;;-0.85;100.00
13604;BME280;24578;48.264;11.436;2023-04-10T04:55:08;96821.50;;;-0.80;100.00
13604;BME280;24578;48.264;11.436;2023-04-10T04:58:29;96814.63;;;-0.75;100.00
13604;BME280;24578;48.264;11.436;2023-04-10T05:01:51;96825.59;;;-0.71;100.00
13604;BME280;24578;48.264;11.436;2023-04-10T05:05:13;96821.22;;;-0.65;100.00
13604;BME280;24578;48.264;11.436;2023-04-10T05:08:35;96825.25;;;-0.54;100.00
13604;BME280;24578;48.264;11.436;2023-04-10T05:12:00;96819.22;;;-0.47;100.00
13604;BME280;24578;48.264;11.436;2023-04-10T05:15:22;96822.31;;;-0.33;100.00
13604;BME280;24578;48.264;11.436;2023-04-10T05:18:45;96814.34;;;-0.16;100.00
13604;BME280;24578;48.264;11.436;2023-04-10T05:22:07;96823.28;;;0.06;100.00
13604;BME280;24578;48.264;11.436;2023-04-10T05:25:29;96816.72;;;0.33;100.00
13604;BME280;24578;48.264;11.436;2023-04-10T05:28:51;96818.72;;;0.58;100.00
13604;BME280;24578;48.264;11.436;2023-04-10T05:32:13;96821.38;;;0.89;100.00
13604;BME280;24578;48.264;11.436;2023-04-10T05:35:35;96806.84;;;1.28;100.00
13604;BME280;24578;48.264;11.436;2023-04-10T05:38:57;96819.16;;;2.36;100.00
13604;BME280;24578;48.264;11.436;2023-04-10T05:42:18;96813.75;;;4.67;100.00
13604;BME280;24578;48.264;11.436;2023-04-10T05:45:43;96817.53;;;6.97;100.00
13604;BME280;24578;48.264;11.436;2023-04-10T05:49:05;96802.72;;;8.69;100.00
13604;BME280;24578;48.264;11.436;2023-04-10T05:52:27;96817.56;;;10.00;100.00
13604;BME280;24578;48.264;11.436;2023-04-10T05:55:49;96812.00;;;11.31;100.00
13604;BME280;24578;48.264;11.436;2023-04-10T05:59:12;96816.84;;;12.52;98.87
13604;BME280;24578;48.264;11.436;2023-04-10T06:02:34;96814.34;;;13.34;92.26
13604;BME280;24578;48.264;11.436;2023-04-10T06:05:56;96812.59;;;14.05;77.91
13604;BME280;24578;48.264;11.436;2023-04-10T06:09:18;96824.34;;;14.77;64.29
13604;BME280;24578;48.264;11.436;2023-04-10T06:12:40;96814.22;;;15.28;57.51
13604;BME280;24578;48.264;11.436;2023-04-10T06:16:02;96811.72;;;15.90;51.83
13604;BME280;24578;48.264;11.436;2023-04-10T06:19:24;96802.38;;;16.28;47.19
13604;BME280;24578;48.264;11.436;2023-04-10T06:22:46;96792.31;;;16.74;43.85
13604;BME280;24578;48.264;11.436;2023-04-10T06:26:08;96782.41;;;16.78;40.89
13604;BME280;24578;48.264;11.436;2023-04-10T06:29:30;96775.09;;;17.50;40.24
13604;BME280;24578;48.264;11.436;2023-04-10T06:32:52;96772.34;;;17.42;37.71
13604;BME280;24578;48.264;11.436;2023-04-10T06:36:14;96776.00;;;17.01;38.14
13604;BME280;24578;48.264;11.436;2023-04-10T06:39:36;96784.47;;;17.33;38.12
13604;BME280;24578;48.264;11.436;2023-04-10T06:42:59;96773.94;;;17.72;37.21
13604;BME280;24578;48.264;11.436;2023-04-10T06:46:21;96774.88;;;18.19;36.71
13604;BME280;24578;48.264;11.436;2023-04-10T06:49:43;96765.34;;;18.28;35.74
13604;BME280;24578;48.264;11.436;2023-04-10T06:53:05;96759.81;;;18.85;34.33
13604;BME280;24578;48.264;11.436;2023-04-10T06:56:26;96769.78;;;17.79;34.88
13604;BME280;24578;48.264;11.436;2023-04-10T06:59:48;96771.19;;;17.64;35.87
13604;BME280;24578;48.264;11.436;2023-04-10T07:03:10;96773.38;;;17.69;35.52
13604;BME280;24578;48.264;11.436;2023-04-10T07:06:32;96763.03;;;17.00;37.06
13604;BME280;24578;48.264;11.436;2023-04-10T07:10:03;96759.81;;;17.83;36.24
13604;BME280;24578;48.264;11.436;2023-04-10T07:13:25;96755.59;;;18.38;34.53
13604;BME280;24578;48.264;11.436;2023-04-10T07:16:47;96748.38;;;18.50;34.70
13604;BME280;24578;48.264;11.436;2023-04-10T07:20:10;96751.34;;;18.09;35.31
13604;BME280;24578;48.264;11.436;2023-04-10T07:23:31;96764.78;;;18.70;34.23
13604;BME280;24578;48.264;11.436;2023-04-10T07:26:53;96753.78;;;19.21;33.09
13604;BME280;24578;48.264;11.436;2023-04-10T07:30:15;96758.91;;;19.57;33.36
13604;BME280;24578;48.264;11.436;2023-04-10T07:33:38;96752.78;;;19.48;32.78
13604;BME280;24578;48.264;11.436;2023-04-10T07:37:00;96756.59;;;19.80;32.86
13604;BME280;24578;48.264;11.436;2023-04-10T07:40:22;96762.34;;;20.69;31.38
13604;BME280;24578;48.264;11.436;2023-04-10T07:43:43;96756.75;;;20.73;31.07
13604;BME280;24578;48.264;11.436;2023-04-10T07:47:06;96746.03;;;21.90;30.72
13604;BME280;24578;48.264;11.436;2023-04-10T07:50:28;96740.59;;;22.86;28.46
13604;BME280;24578;48.264;11.436;2023-04-10T07:53:51;96738.78;;;22.24;28.19
13604;BME280;24578;48.264;11.436;2023-04-10T07:57:12;96746.88;;;21.82;28.36
13604;BME280;24578;48.264;11.436;2023-04-10T08:00:34;96749.63;;;19.18;32.56
13604;BME280;24578;48.264;11.436;2023-04-10T08:03:56;96749.28;;;19.66;31.75
13604;BME280;24578;48.264;11.436;2023-04-10T08:07:19;96740.81;;;20.74;29.57
13604;BME280;24578;48.264;11.436;2023-04-10T08:10:42;96736.72;;;20.72;29.56
13604;BME280;24578;48.264;11.436;2023-04-10T08:14:04;96732.47;;;21.04;30.69
13604;BME280;24578;48.264;11.436;2023-04-10T08:17:27;96721.91;;;22.01;28.23
13604;BME280;24578;48.264;11.436;2023-04-10T08:20:49;96726.75;;;22.61;27.46
13604;BME280;24578;48.264;11.436;2023-04-10T08:24:10;96732.44;;;21.62;28.69
13604;BME280;24578;48.264;11.436;2023-04-10T08:27:32;96738.34;;;19.44;31.26
13604;BME280;24578;48.264;11.436;2023-04-10T08:30:54;96735.13;;;19.85;31.17
13604;BME280;24578;48.264;11.436;2023-04-10T08:34:16;96724.41;;;20.89;29.46
13604;BME280;24578;48.264;11.436;2023-04-10T08:37:37;96730.75;;;20.45;30.56
13604;BME280;24578;48.264;11.436;2023-04-10T08:40:59;96740.78;;;20.58;30.37
13604;BME280;24578;48.264;11.436;2023-04-10T08:44:21;96725.88;;;21.16;29.27
13604;BME280;24578;48.264;11.436;2023-04-10T08:47:44;96731.31;;;21.31;28.62
13604;BME280;24578;48.264;11.436;2023-04-10T08:51:14;96731.91;;;22.14;27.15
13604;BME280;24578;48.264;11.436;2023-04-10T08:54:37;96729.28;;;21.50;27.61
13604;BME280;24578;48.264;11.436;2023-04-10T08:58:01;96715.66;;;21.38;28.30
13604;BME280;24578;48.264;11.436;2023-04-10T09:01:24;96709.81;;;22.78;27.03
13604;BME280;24578;48.264;11.436;2023-04-10T09:04:48;96730.50;;;22.66;25.63
13604;BME280;24578;48.264;11.436;2023-04-10T09:08:14;96719.94;;;22.03;27.55
13604;BME280;24578;48.264;11.436;2023-04-10T09:12:02;96717.63;;;21.52;28.26
13604;BME280;24578;48.264;11.436;2023-04-10T09:15:25;96709.03;;;22.93;27.55
13604;BME280;24578;48.264;11.436;2023-04-10T09:18:49;96700.94;;;24.08;25.81
13604;BME280;24578;48.264;11.436;2023-04-10T09:22:12;96691.41;;;25.15;24.38
13604;BME280;24578;48.264;11.436;2023-04-10T09:25:36;96697.16;;;24.32;24.32
13604;BME280;24578;48.264;11.436;2023-04-10T09:29:05;96700.59;;;23.81;24.68
13604;BME280;24578;48.264;11.436;2023-04-10T09:32:40;96699.97;;;22.41;25.30
13604;BME280;24578;48.264;11.436;2023-04-10T09:36:02;96696.22;;;21.47;26.87
13604;BME280;24578;48.264;11.436;2023-04-10T09:39:35;96694.31;;;20.99;26.79
13604;BME280;24578;48.264;11.436;2023-04-10T09:42:58;96693.19;;;20.86;27.99
13604;BME280;24578;48.264;11.436;2023-04-10T09:46:26;96673.28;;;20.99;26.79
13604;BME280;24578;48.264;11.436;2023-04-10T09:49:54;96679.84;;;20.95;27.39
13604;BME280;24578;48.264;11.436;2023-04-10T09:53:18;96671.09;;;21.20;26.73
13604;BME280;24578;48.264;11.436;2023-04-10T09:56:44;96664.03;;;21.20;26.66
13604;BME280;24578;48.264;11.436;2023-04-10T10:00:07;96659.22;;;21.88;26.34
13604;BME280;24578;48.264;11.436;2023-04-10T10:03:29;96654.72;;;22.29;25.19
13604;BME280;24578;48.264;11.436;2023-04-10T10:06:51;96662.88;;;21.87;25.54
13604;BME280;24578;48.264;11.436;2023-04-10T10:10:13;96660.09;;;20.66;26.53
13604;BME280;24578;48.264;11.436;2023-04-10T10:13:51;96651.78;;;21.60;25.66
13604;BME280;24578;48.264;11.436;2023-04-10T10:17:18;96634.81;;;21.63;25.06
13604;BME280;24578;48.264;11.436;2023-04-10T10:20:44;96627.56;;;21.09;26.03
13604;BME280;24578;48.264;11.436;2023-04-10T10:24:07;96640.94;;;21.47;24.86
13604;BME280;24578;48.264;11.436;2023-04-10T10:27:30;96622.63;;;22.02;25.91
13604;BME280;24578;48.264;11.436;2023-04-10T10:30:55;96619.03;;;22.49;24.19
13604;BME280;24578;48.264;11.436;2023-04-10T10:34:17;96613.00;;;22.32;24.82
13604;BME280;24578;48.264;11.436;2023-04-10T10:37:40;96606.25;;;23.96;23.54
13604;BME280;24578;48.264;11.436;2023-04-10T10:41:26;96597.53;;;24.39;23.99
13604;BME280;24578;48.264;11.436;2023-04-10T10:45:20;96602.34;;;24.29;21.38
13604;BME280;24578;48.264;11.436;2023-04-10T10:48:57;96603.78;;;23.58;21.65
13604;BME280;24578;48.264;11.436;2023-04-10T10:52:51;96608.09;;;23.81;21.14
13604;BME280;24578;48.264;11.436;2023-04-10T11:06:51;96559.91;;;23.79;23.96
13604;BME280;24578;48.264;11.436;2023-04-10T11:10:13;96548.28;;;23.95;24.23
13604;BME280;24578;48.264;11.436;2023-04-10T11:13:37;96549.19;;;24.24;22.55
13604;BME280;24578;48.264;11.436;2023-04-10T11:17:02;96553.59;;;23.58;24.19
13604;BME280;24578;48.264;11.436;2023-04-10T11:20:24;96549.03;;;23.52;23.82
13604;BME280;24578;48.264;11.436;2023-04-10T11:27:36;96531.91;;;23.84;24.50
13604;BME280;24578;48.264;11.436;2023-04-10T11:34:43;96527.94;;;23.95;23.62
13604;BME280;24578;48.264;11.436;2023-04-10T11:38:13;96525.00;;;23.47;24.22
13604;BME280;24578;48.264;11.436;2023-04-10T11:41:36;96518.94;;;22.33;24.63
13604;BME280;24578;48.264;11.436;2023-04-10T11:45:25;96532.91;;;22.42;25.11
13604;BME280;24578;48.264;11.436;2023-04-10T11:48:52;96519.09;;;22.70;24.78
13604;BME280;24578;48.264;11.436;2023-04-10T11:52:25;96515.09;;;22.59;24.12
13604;BME280;24578;48.264;11.436;2023-04-10T11:55:47;96507.63;;;22.47;24.16
13604;BME280;24578;48.264;11.436;2023-04-10T11:59:09;96498.69;;;22.10;24.44
13604;BME280;24578;48.264;11.436;2023-04-10T12:02:33;96504.66;;;22.04;25.17
13604;BME280;24578;48.264;11.436;2023-04-10T12:05:55;96503.72;;;21.73;24.96
13604;BME280;24578;48.264;11.436;2023-04-10T12:09:20;96506.13;;;21.83;27.20
13604;BME280;24578;48.264;11.436;2023-04-10T12:12:42;96501.72;;;22.22;25.14
13604;BME280;24578;48.264;11.436;2023-04-10T12:16:09;96509.69;;;21.90;25.23
13604;BME280;24578;48.264;11.436;2023-04-10T12:19:32;96507.44;;;21.24;25.90
13604;BME280;24578;48.264;11.436;2023-04-10T12:22:55;96505.28;;;21.28;25.44
13604;BME280;24578;48.264;11.436;2023-04-10T12:26:17;96494.00;;;21.74;24.62
13604;BME280;24578;48.264;11.436;2023-04-10T12:29:39;96494.19;;;21.72;25.47
13604;BME280;24578;48.264;11.436;2023-04-10T12:33:01;96486.22;;;21.49;24.56
13604;BME280;24578;48.264;11.436;2023-04-10T12:36:27;96487.81;;;21.58;26.26
13604;BME280;24578;48.264;11.436;2023-04-10T12:39:50;96487.91;;;21.97;25.28
13604;BME280;24578;48.264;11.436;2023-04-10T12:43:38;96484.72;;;21.55;25.00
13604;BME280;24578;48.264;11.436;2023-04-10T12:47:00;96479.31;;;20.68;25.45
13604;BME280;24578;48.264;11.436;2023-04-10T12:50:22;96470.72;;;20.91;25.93
13604;BME280;24578;48.264;11.436;2023-04-10T12:53:45;96451.28;;;21.64;25.57
13604;BME280;24578;48.264;11.436;2023-04-10T12:57:07;96468.53;;;22.28;25.12
13604;BME280;24578;48.264;11.436;2023-04-10T13:00:28;96459.06;;;21.80;23.92
13604;BME280;24578;48.264;11.436;2023-04-10T13:03:50;96460.25;;;21.46;24.76
13604;BME280;24578;48.264;11.436;2023-04-10T13:07:12;96468.56;;;20.14;25.14
13604;BME280;24578;48.264;11.436;2023-04-10T13:10:34;96465.84;;;20.63;24.92
13604;BME280;24578;48.264;11.436;2023-04-10T13:13:58;96447.34;;;20.96;23.63
13604;BME280;24578;48.264;11.436;2023-04-10T13:17:20;96450.16;;;20.95;24.04
13604;BME280;24578;48.264;11.436;2023-04-10T13:20:42;96444.66;;;21.36;24.36
13604;BME280;24578;48.264;11.436;2023-04-10T13:24:04;96435.53;;;21.79;24.76
13604;BME280;24578;48.264;11.436;2023-04-10T13:27:26;96435.13;;;21.35;25.03
13604;BME280;24578;48.264;11.436;2023-04-10T13:30:47;96420.84;;;21.84;24.55
13604;BME280;24578;48.264;11.436;2023-04-10T13:34:09;96430.28;;;21.94;23.94
13604;BME280;24578;48.264;11.436;2023-04-10T13:37:31;96428.66;;;21.46;24.16
13604;BME280;24578;48.264;11.436;2023-04-10T13:40:53;96393.75;;;20.41;25.89
13604;BME280;24578;48.264;11.436;2023-04-10T13:44:14;96391.69;;;20.84;25.29
13604;BME280;24578;48.264;11.436;2023-04-10T13:47:36;96393.84;;;21.97;24.62
13604;BME280;24578;48.264;11.436;2023-04-10T13:50:58;96394.22;;;22.47;22.75
13604;BME280;24578;48.264;11.436;2023-04-10T13:54:21;96376.50;;;23.73;21.73
13604;BME280;24578;48.264;11.436;2023-04-10T13:57:43;96388.00;;;24.79;20.87
13604;BME280;24578;48.264;11.436;2023-04-10T14:01:05;96382.09;;;25.79;19.66
13604;BME280;24578;48.264;11.436;2023-04-10T14:04:26;96364.97;;;26.88;19.55
13604;BME280;24578;48.264;11.436;2023-04-10T14:07:48;96354.06;;;27.74;18.07
13604;BME280;24578;48.264;11.436;2023-04-10T14:11:12;96350.63;;;27.34;17.86
13604;BME280;24578;48.264;11.436;2023-04-10T14:14:34;96345.28;;;27.09;18.10
13604;BME280;24578;48.264;11.436;2023-04-10T14:17:55;96339.00;;;26.44;18.87
13604;BME280;24578;48.264;11.436;2023-04-10T14:21:17;96349.25;;;25.27;19.63
13604;BME280;24578;48.264;11.436;2023-04-10T14:24:39;96356.69;;;22.82;22.28
13604;BME280;24578;48.264;11.436;2023-04-10T14:28:01;96353.28;;;20.98;23.37
13604;BME280;24578;48.264;11.436;2023-04-10T14:31:22;96354.06;;;20.76;24.06
13604;BME280;24578;48.264;11.436;2023-04-10T14:34:44;96345.66;;;20.80;24.42
13604;BME280;24578;48.264;11.436;2023-04-10T14:38:06;96353.03;;;20.85;23.97
13604;BME280;24578;48.264;11.436;2023-04-10T14:41:28;96356.91;;;20.10;25.31
13604;BME280;24578;48.264;11.436;2023-04-10T14:44:50;96350.22;;;19.90;25.84
13604;BME280;24578;48.264;11.436;2023-04-10T14:48:11;96353.16;;;19.54;26.27
13604;BME280;24578;48.264;11.436;2023-04-10T14:51:33;96359.59;;;18.76;26.52
13604;BME280;24578;48.264;11.436;2023-04-10T14:54:55;96349.88;;;17.54;27.94
13604;BME280;24578;48.264;11.436;2023-04-10T14:58:17;96350.91;;;17.17;29.17
13604;BME280;24578;48.264;11.436;2023-04-10T15:01:38;96339.81;;;16.59;30.18
13604;BME280;24578;48.264;11.436;2023-04-10T15:05:00;96337.69;;;16.44;30.64
13604;BME280;24578;48.264;11.436;2023-04-10T15:08:22;96331.91;;;15.56;31.03
13604;BME280;24578;48.264;11.436;2023-04-10T15:11:44;96311.19;;;15.34;31.60
13604;BME280;24578;48.264;11.436;2023-04-10T15:15:08;96311.75;;;15.38;33.12
13604;BME280;24578;48.264;11.436;2023-04-10T15:18:29;96301.31;;;15.38;32.85
13604;BME280;24578;48.264;11.436;2023-04-10T15:21:53;96314.22;;;15.10;33.14
13604;BME280;24578;48.264;11.436;2023-04-10T15:25:15;96304.63;;;15.20;32.60
13604;BME280;24578;48.264;11.436;2023-04-10T15:28:37;96300.78;;;15.15;32.48
13604;BME280;24578;48.264;11.436;2023-04-10T15:31:59;96312.03;;;14.96;33.53
13604;BME280;24578;48.264;11.436;2023-04-10T15:35:21;96309.44;;;14.96;33.45
13604;BME280;24578;48.264;11.436;2023-04-10T15:38:45;96308.31;;;14.98;33.92
13604;BME280;24578;48.264;11.436;2023-04-10T15:42:07;96310.38;;;14.85;33.87
13604;BME280;24578;48.264;11.436;2023-04-10T15:45:28;96303.50;;;14.74;33.68
13604;BME280;24578;48.264;11.436;2023-04-10T15:48:50;96305.94;;;14.66;34.35
13604;BME280;24578;48.264;11.436;2023-04-10T15:52:12;96317.78;;;14.70;33.38
13604;BME280;24578;48.264;11.436;2023-04-10T15:55:40;96301.19;;;14.71;34.28
13604;BME280;24578;48.264;11.436;2023-04-10T15:59:02;96288.97;;;14.71;34.18
13604;BME280;24578;48.264;11.436;2023-04-10T16:02:24;96285.41;;;14.72;34.60
13604;BME280;24578;48.264;11.436;2023-04-10T16:05:46;96278.66;;;14.60;34.26
13604;BME280;24578;48.264;11.436;2023-04-10T16:09:08;96275.00;;;14.22;35.18
13604;BME280;24578;48.264;11.436;2023-04-10T16:12:30;96273.75;;;14.16;35.84
13604;BME280;24578;48.264;11.436;2023-04-10T16:15:52;96270.03;;;14.19;35.43
13604;BME280;24578;48.264;11.436;2023-04-10T16:19:13;96284.25;;;14.05;35.14
13604;BME280;24578;48.264;11.436;2023-04-10T16:22:35;96271.34;;;13.93;36.18
13604;BME280;24578;48.264;11.436;2023-04-10T16:25:57;96268.06;;;13.91;36.25
13604;BME280;24578;48.264;11.436;2023-04-10T16:29:19;96274.22;;;13.90;35.74
13604;BME280;24578;48.264;11.436;2023-04-10T16:32:40;96274.91;;;13.92;36.02
13604;BME280;24578;48.264;11.436;2023-04-10T16:36:02;96262.84;;;13.91;36.38
13604;BME280;24578;48.264;11.436;2023-04-10T16:39:25;96263.81;;;13.90;36.08
13604;BME280;24578;48.264;11.436;2023-04-10T16:42:46;96262.91;;;13.80;36.76
13604;BME280;24578;48.264;11.436;2023-04-10T16:46:08;96268.25;;;13.78;36.44
13604;BME280;24578;48.264;11.436;2023-04-10T16:49:31;96266.47;;;13.69;36.67
13604;BME280;24578;48.264;11.436;2023-04-10T16:52:53;96258.75;;;13.67;37.10
13604;BME280;24578;48.264;11.436;2023-04-10T16:56:14;96260.81;;;13.64;37.06
13604;BME280;24578;48.264;11.436;2023-04-10T16:59:36;96247.50;;;13.57;37.27
13604;BME280;24578;48.264;11.436;2023-04-10T17:02:58;96244.59;;;13.50;37.23
13604;BME280;24578;48.264;11.436;2023-04-10T17:06:20;96246.88;;;13.44;37.60
13604;BME280;24578;48.264;11.436;2023-04-10T17:09:42;96246.25;;;13.30;37.99
13604;BME280;24578;48.264;11.436;2023-04-10T17:13:04;96239.44;;;13.18;38.99
13604;BME280;24578;48.264;11.436;2023-04-10T17:16:26;96237.41;;;13.00;38.56
13604;BME280;24578;48.264;11.436;2023-04-10T17:19:47;96226.56;;;12.95;39.13
13604;BME280;24578;48.264;11.436;2023-04-10T17:23:09;96221.78;;;12.79;39.20
13604;BME280;24578;48.264;11.436;2023-04-10T17:26:31;96219.56;;;12.74;39.61
13604;BME280;24578;48.264;11.436;2023-04-10T17:29:53;96221.38;;;12.62;39.15
13604;BME280;24578;48.264;11.436;2023-04-10T17:33:15;96214.88;;;12.36;40.39
13604;BME280;24578;48.264;11.436;2023-04-10T17:36:37;96218.31;;;12.25;40.53
13604;BME280;24578;48.264;11.436;2023-04-10T17:39:58;96219.03;;;12.27;40.38
13604;BME280;24578;48.264;11.436;2023-04-10T17:43:21;96215.50;;;12.28;40.05
13604;BME280;24578;48.264;11.436;2023-04-10T17:46:43;96211.28;;;12.15;40.49
13604;BME280;24578;48.264;11.436;2023-04-10T17:50:05;96211.41;;;11.91;41.13
13604;BME280;24578;48.264;11.436;2023-04-10T17:53:27;96205.03;;;11.84;41.65
13604;BME280;24578;48.264;11.436;2023-04-10T17:56:51;96210.13;;;11.74;41.96
13604;BME280;24578;48.264;11.436;2023-04-10T18:00:14;96205.19;;;11.60;43.17
13604;BME280;24578;48.264;11.436;2023-04-10T18:03:36;96200.69;;;11.62;43.32
13604;BME280;24578;48.264;11.436;2023-04-10T18:06:57;96204.22;;;11.49;44.29
13604;BME280;24578;48.264;11.436;2023-04-10T18:10:19;96204.34;;;11.48;44.72